sensor_id;sensor_type;location;lat;lon;timestamp;pressure;altitude;pressure_sealevel;temperature;humidity
20043;BME280;10182;52.896;6.496;2023-07-02T00:00:21;100418.50;;;14.87;100.00
20043;BME280;10182;52.896;6.496;2023-07-02T00:05:23;100419.34;;;14.88;100.00
20043;BME280;10182;52.896;6.496;2023-07-02T00:10:26;100418.16;;;14.92;100.00
20043;BME280;10182;52.896;6.496;2023-07-02T00:15:28;100422.19;;;14.98;100.00
20043;BME280;10182;52.896;6.496;2023-07-02T00:20:29;100418.34;;;15.02;100.00
20043;BME280;10182;52.896;6.496;2023-07-02T00:25:36;100409.63;;;15.00;100.00
20043;BME280;10182;52.896;6.496;2023-07-02T00:30:38;100408.69;;;15.01;100.00
20043;BME280;10182;52.896;6.496;2023-07-02T00:35:40;100408.88;;;14.98;100.00
20043;BME280;10182;52.896;6.496;2023-07-02T00:40:43;100398.75;;;14.90;100.00
20043;BME280;10182;52.896;6.496;2023-07-02T00:45:44;100395.66;;;14.83;100.00
20043;BME280;10182;52.896;6.496;2023-07-02T00:50:46;100389.25;;;14.73;100.00
20043;BME280;10182;52.896;6.496;2023-07-02T00:55:49;100385.53;;;14.63;100.00
20043;BME280;10182;52.896;6.496;2023-07-02T01:00:51;100391.59;;;14.52;100.00
20043;BME280;10182;52.896;6.496;2023-07-02T01:05:53;100393.91;;;14.44;100.00
20043;BME280;10182;52.896;6.496;2023-07-02T01:10:57;100387.94;;;14.40;100.00
20043;BME280;10182;52.896;6.496;2023-07-02T01:16:00;100382.38;;;14.30;100.00
20043;BME280;10182;52.896;6.496;2023-07-02T01:21:04;100387.94;;;14.27;100.00
20043;BME280;10182;52.896;6.496;2023-07-02T01:26:06;100383.50;;;14.13;100.00
20043;BME280;10182;52.896;6.496;2023-07-02T01:31:08;100389.16;;;14.09;100.00
20043;BME280;10182;52.896;6.496;2023-07-02T01:36:11;100394.25;;;13.99;100.00
20043;BME280;10182;52.896;6.496;2023-07-02T01:41:12;100389.84;;;13.85;100.00
20043;BME280;10182;52.896;6.496;2023-07-02T01:46:14;100394.81;;;13.77;100.00
20043;BME280;10182;52.896;6.496;2023-07-02T01:51:17;100403.28;;;13.69;100.00
20043;BME280;10182;52.896;6.496;2023-07-02T01:56:19;100402.19;;;13.59;100.00
20043;BME280;10182;52.896;6.496;2023-07-02T02:01:20;100397.47;;;13.49;100.00
20043;BME280;10182;52.896;6.496;2023-07-02T02:06:23;100399.16;;;13.50;100.00
20043;BME280;10182;52.896;6.496;2023-07-02T02:11:25;100408.69;;;13.40;100.00
20043;BME280;10182;52.896;6.496;2023-07-02T02:16:27;100414.31;;;13.35;100.00
20043;BME280;10182;52.896;6.496;2023-07-02T02:21:31;100415.06;;;13.23;100.00
20043;BME280;10182;52.896;6.496;2023-07-02T02:26:33;100424.66;;;13.11;100.00
20043;BME280;10182;52.896;6.496;2023-07-02T02:31:34;100426.94;;;13.03;100.00
20043;BME280;10182;52.896;6.496;2023-07-02T02:36:37;100435.28;;;12.97;100.00
20043;BME280;10182;52.896;6.496;2023-07-02T02:41:39;100437.19;;;12.95;100.00
20043;BME280;10182;52.896;6.496;2023-07-02T02:46:41;100436.41;;;12.93;100.00
20043;BME280;10182;52.896;6.496;2023-07-02T02:51:44;100439.34;;;13.02;100.00
20043;BME280;10182;52.896;6.496;2023-07-02T02:56:45;100437.47;;;13.04;100.00
20043;BME280;10182;52.896;6.496;2023-07-02T03:01:47;100441.84;;;13.06;100.00
20043;BME280;10182;52.896;6.496;2023-07-02T03:06:51;100435.66;;;13.05;100.00
20043;BME280;10182;52.896;6.496;2023-07-02T03:11:53;100437.38;;;13.06;100.00
20043;BME280;10182;52.896;6.496;2023-07-02T03:16:54;100434.91;;;13.03;100.00
20043;BME280;10182;52.896;6.496;2023-07-02T03:21:57;100439.09;;;13.07;100.00
20043;BME280;10182;52.896;6.496;2023-07-02T03:26:59;100441.44;;;13.12;100.00
20043;BME280;10182;52.896;6.496;2023-07-02T03:32:01;100446.66;;;13.13;100.00
20043;BME280;10182;52.896;6.496;2023-07-02T03:37:04;100444.88;;;13.14;100.00
20043;BME280;10182;52.896;6.496;2023-07-02T03:42:07;100447.53;;;13.14;100.00
20043;BME280;10182;52.896;6.496;2023-07-02T03:47:09;100446.75;;;13.12;100.00
20043;BME280;10182;52.896;6.496;2023-07-02T03:52:14;100449.53;;;13.10;100.00
20043;BME280;10182;52.896;6.496;2023-07-02T03:57:15;100451.97;;;13.13;100.00
20043;BME280;10182;52.896;6.496;2023-07-02T04:02:17;100455.69;;;13.11;100.00
20043;BME280;10182;52.896;6.496;2023-07-02T04:07:20;100455.78;;;13.09;100.00
20043;BME280;10182;52.896;6.496;2023-07-02T04:12:22;100461.09;;;13.09;100.00
20043;BME280;10182;52.896;6.496;2023-07-02T04:17:23;100467.47;;;13.21;100.00
20043;BME280;10182;52.896;6.496;2023-07-02T04:22:26;100460.75;;;13.44;100.00
20043;BME280;10182;52.896;6.496;2023-07-02T04:27:28;100471.09;;;13.63;100.00
20043;BME280;10182;52.896;6.496;2023-07-02T04:32:30;100475.94;;;13.71;100.00
20043;BME280;10182;52.896;6.496;2023-07-02T04:37:33;100482.41;;;13.67;100.00
20043;BME280;10182;52.896;6.496;2023-07-02T04:42:36;100477.75;;;13.56;100.00
20043;BME280;10182;52.896;6.496;2023-07-02T04:47:37;100485.91;;;13.53;100.00
20043;BME280;10182;52.896;6.496;2023-07-02T04:52:40;100488.56;;;13.53;100.00
20043;BME280;10182;52.896;6.496;2023-07-02T04:57:42;100487.22;;;13.75;100.00
20043;BME280;10182;52.896;6.496;2023-07-02T05:02:44;100498.34;;;14.09;100.00
20043;BME280;10182;52.896;6.496;2023-07-02T05:07:47;100497.75;;;14.18;100.00
20043;BME280;10182;52.896;6.496;2023-07-02T05:12:49;100492.09;;;14.50;100.00
20043;BME280;10182;52.896;6.496;2023-07-02T05:17:51;100488.78;;;14.74;100.00
20043;BME280;10182;52.896;6.496;2023-07-02T05:22:54;100485.69;;;14.93;100.00
20043;BME280;10182;52.896;6.496;2023-07-02T05:27:55;100493.25;;;15.12;100.00
20043;BME280;10182;52.896;6.496;2023-07-02T05:32:57;100490.06;;;15.32;100.00
20043;BME280;10182;52.896;6.496;2023-07-02T05:38:00;100494.94;;;15.51;100.00
20043;BME280;10182;52.896;6.496;2023-07-02T05:43:02;100494.25;;;15.73;100.00
20043;BME280;10182;52.896;6.496;2023-07-02T05:48:04;100500.53;;;15.72;100.00
20043;BME280;10182;52.896;6.496;2023-07-02T05:53:07;100505.16;;;15.83;100.00
20043;BME280;10182;52.896;6.496;2023-07-02T05:58:10;100507.78;;;15.70;100.00
20043;BME280;10182;52.896;6.496;2023-07-02T06:03:12;100511.09;;;15.74;100.00
20043;BME280;10182;52.896;6.496;2023-07-02T06:08:20;100508.66;;;15.84;100.00
20043;BME280;10182;52.896;6.496;2023-07-02T06:13:22;100510.44;;;15.96;100.00
20043;BME280;10182;52.896;6.496;2023-07-02T06:18:24;100513.63;;;16.01;100.00
20043;BME280;10182;52.896;6.496;2023-07-02T06:23:27;100514.63;;;15.74;100.00
20043;BME280;10182;52.896;6.496;2023-07-02T06:28:28;100528.25;;;15.59;100.00
20043;BME280;10182;52.896;6.496;2023-07-02T06:33:30;100533.59;;;15.33;100.00
20043;BME280;10182;52.896;6.496;2023-07-02T06:38:33;100537.22;;;15.19;100.00
20043;BME280;10182;52.896;6.496;2023-07-02T06:43:35;100536.34;;;15.57;100.00
20043;BME280;10182;52.896;6.496;2023-07-02T06:48:37;100539.03;;;16.07;100.00
20043;BME280;10182;52.896;6.496;2023-07-02T06:53:40;100541.69;;;16.20;100.00
20043;BME280;10182;52.896;6.496;2023-07-02T06:58:42;100556.59;;;15.98;100.00
20043;BME280;10182;52.896;6.496;2023-07-02T07:03:44;100573.94;;;15.67;100.00
20043;BME280;10182;52.896;6.496;2023-07-02T07:08:47;100592.72;;;15.52;100.00
20043;BME280;10182;52.896;6.496;2023-07-02T07:13:48;100585.34;;;15.17;100.00
20043;BME280;10182;52.896;6.496;2023-07-02T07:18:50;100589.31;;;15.50;100.00
20043;BME280;10182;52.896;6.496;2023-07-02T07:23:53;100590.25;;;16.01;100.00
20043;BME280;10182;52.896;6.496;2023-07-02T07:28:55;100593.84;;;16.13;100.00
20043;BME280;10182;52.896;6.496;2023-07-02T07:33:58;100591.03;;;16.14;100.00
20043;BME280;10182;52.896;6.496;2023-07-02T07:39:01;100593.34;;;16.32;100.00
20043;BME280;10182;52.896;6.496;2023-07-02T07:44:03;100602.78;;;16.24;100.00
20043;BME280;10182;52.896;6.496;2023-07-02T07:49:05;100608.78;;;16.15;100.00
20043;BME280;10182;52.896;6.496;2023-07-02T07:54:08;100616.50;;;16.07;100.00
20043;BME280;10182;52.896;6.496;2023-07-02T07:59:09;100611.44;;;16.52;100.00
20043;BME280;10182;52.896;6.496;2023-07-02T08:04:11;100601.84;;;16.98;100.00
20043;BME280;10182;52.896;6.496;2023-07-02T08:09:14;100615.50;;;17.18;100.00
20043;BME280;10182;52.896;6.496;2023-07-02T08:14:17;100621.59;;;16.84;100.00
20043;BME280;10182;52.896;6.496;2023-07-02T08:19:19;100617.44;;;16.56;100.00
20043;BME280;10182;52.896;6.496;2023-07-02T08:24:22;100625.09;;;16.61;100.00
20043;BME280;10182;52.896;6.496;2023-07-02T08:29:24;100636.16;;;16.80;100.00
20043;BME280;10182;52.896;6.496;2023-07-02T08:34:26;100634.53;;;16.53;100.00
20043;BME280;10182;52.896;6.496;2023-07-02T08:39:29;100642.31;;;16.32;100.00
20043;BME280;10182;52.896;6.496;2023-07-02T08:44:31;100652.41;;;16.53;100.00
20043;BME280;10182;52.896;6.496;2023-07-02T08:49:33;100659.28;;;16.44;100.00
20043;BME280;10182;52.896;6.496;2023-07-02T08:54:36;100658.63;;;16.03;100.00
20043;BME280;10182;52.896;6.496;2023-07-02T08:59:37;100680.44;;;15.84;100.00
20043;BME280;10182;52.896;6.496;2023-07-02T09:04:39;100685.19;;;15.66;100.00
20043;BME280;10182;52.896;6.496;2023-07-02T09:09:46;100681.25;;;15.59;100.00
20043;BME280;10182;52.896;6.496;2023-07-02T09:14:54;100685.09;;;16.19;100.00
20043;BME280;10182;52.896;6.496;2023-07-02T09:19:58;100679.66;;;16.95;100.00
20043;BME280;10182;52.896;6.496;2023-07-02T09:25:02;100674.66;;;17.26;100.00
20043;BME280;10182;52.896;6.496;2023-07-02T09:30:09;100663.66;;;18.00;100.00
20043;BME280;10182;52.896;6.496;2023-07-02T09:35:12;100659.63;;;17.48;100.00
20043;BME280;10182;52.896;6.496;2023-07-02T09:40:16;100669.16;;;17.63;100.00
20043;BME280;10182;52.896;6.496;2023-07-02T09:45:18;100666.13;;;17.56;100.00
20043;BME280;10182;52.896;6.496;2023-07-02T09:50:21;100680.09;;;17.13;100.00
20043;BME280;10182;52.896;6.496;2023-07-02T09:55:26;100685.56;;;17.12;100.00
20043;BME280;10182;52.896;6.496;2023-07-02T10:00:28;100688.38;;;17.10;100.00
20043;BME280;10182;52.896;6.496;2023-07-02T10:05:30;100686.72;;;17.32;100.00
20043;BME280;10182;52.896;6.496;2023-07-02T10:10:34;100696.56;;;16.96;100.00
20043;BME280;10182;52.896;6.496;2023-07-02T10:15:35;100708.44;;;16.54;100.00
20043;BME280;10182;52.896;6.496;2023-07-02T10:20:40;100698.63;;;16.79;100.00
20043;BME280;10182;52.896;6.496;2023-07-02T10:25:44;100700.13;;;17.90;100.00
20043;BME280;10182;52.896;6.496;2023-07-02T10:30:45;100700.56;;;17.50;100.00
20043;BME280;10182;52.896;6.496;2023-07-02T10:35:48;100705.94;;;17.01;100.00
20043;BME280;10182;52.896;6.496;2023-07-02T10:40:55;100702.25;;;17.98;100.00
20043;BME280;10182;52.896;6.496;2023-07-02T10:45:58;100706.50;;;18.46;100.00
20043;BME280;10182;52.896;6.496;2023-07-02T10:51:11;100713.66;;;17.88;100.00
20043;BME280;10182;52.896;6.496;2023-07-02T10:56:17;100724.47;;;17.40;100.00
20043;BME280;10182;52.896;6.496;2023-07-02T11:01:25;100735.19;;;17.40;100.00
20043;BME280;10182;52.896;6.496;2023-07-02T11:06:27;100745.59;;;17.32;100.00
20043;BME280;10182;52.896;6.496;2023-07-02T11:11:31;100748.72;;;17.85;100.00
20043;BME280;10182;52.896;6.496;2023-07-02T11:16:32;100738.94;;;18.20;100.00
20043;BME280;10182;52.896;6.496;2023-07-02T11:21:36;100746.16;;;17.84;100.00
20043;BME280;10182;52.896;6.496;2023-07-02T11:26:41;100772.41;;;17.67;100.00
20043;BME280;10182;52.896;6.496;2023-07-02T11:31:43;100754.28;;;17.71;100.00
20043;BME280;10182;52.896;6.496;2023-07-02T11:36:46;100769.53;;;17.46;100.00
20043;BME280;10182;52.896;6.496;2023-07-02T11:41:50;100753.53;;;18.04;100.00
20043;BME280;10182;52.896;6.496;2023-07-02T11:46:52;100757.78;;;17.71;100.00
20043;BME280;10182;52.896;6.496;2023-07-02T11:51:54;100759.88;;;17.68;100.00
20043;BME280;10182;52.896;6.496;2023-07-02T11:56:57;100754.00;;;18.09;100.00
20043;BME280;10182;52.896;6.496;2023-07-02T12:01:58;100756.50;;;17.77;100.00
20043;BME280;10182;52.896;6.496;2023-07-02T12:07:01;100767.78;;;17.69;100.00
20043;BME280;10182;52.896;6.496;2023-07-02T12:12:06;100760.34;;;18.65;100.00
20043;BME280;10182;52.896;6.496;2023-07-02T12:17:07;100764.13;;;18.85;100.00
20043;BME280;10182;52.896;6.496;2023-07-02T12:22:09;100757.94;;;18.39;100.00
20043;BME280;10182;52.896;6.496;2023-07-02T12:27:12;100778.19;;;17.85;100.00
20043;BME280;10182;52.896;6.496;2023-07-02T12:32:14;100774.25;;;17.78;100.00
20043;BME280;10182;52.896;6.496;2023-07-02T12:37:15;100787.66;;;17.78;100.00
20043;BME280;10182;52.896;6.496;2023-07-02T12:42:20;100782.34;;;17.89;100.00
20043;BME280;10182;52.896;6.496;2023-07-02T12:47:22;100799.25;;;17.79;100.00
20043;BME280;10182;52.896;6.496;2023-07-02T12:52:23;100807.66;;;17.50;100.00
20043;BME280;10182;52.896;6.496;2023-07-02T12:57:27;100815.56;;;17.51;100.00
20043;BME280;10182;52.896;6.496;2023-07-02T13:02:29;100814.03;;;17.71;100.00
20043;BME280;10182;52.896;6.496;2023-07-02T13:07:30;100803.41;;;17.58;100.00
20043;BME280;10182;52.896;6.496;2023-07-02T13:12:33;100804.19;;;17.96;100.00
20043;BME280;10182;52.896;6.496;2023-07-02T13:17:35;100800.59;;;18.99;93.00
20043;BME280;10182;52.896;6.496;2023-07-02T13:22:37;100818.03;;;18.82;93.12
20043;BME280;10182;52.896;6.496;2023-07-02T13:27:40;100822.44;;;18.94;88.82
20043;BME280;10182;52.896;6.496;2023-07-02T13:32:41;100815.00;;;19.42;93.20
20043;BME280;10182;52.896;6.496;2023-07-02T13:37:43;100821.78;;;19.57;100.00
20043;BME280;10182;52.896;6.496;2023-07-02T13:42:46;100837.28;;;18.87;88.81
20043;BME280;10182;52.896;6.496;2023-07-02T13:47:48;100840.81;;;19.22;86.13
20043;BME280;10182;52.896;6.496;2023-07-02T13:52:50;100840.59;;;18.80;74.51
20043;BME280;10182;52.896;6.496;2023-07-02T13:57:53;100851.41;;;19.35;77.33
20043;BME280;10182;52.896;6.496;2023-07-02T14:02:57;100845.31;;;18.42;90.67
20043;BME280;10182;52.896;6.496;2023-07-02T14:07:59;100841.53;;;18.33;91.92
20043;BME280;10182;52.896;6.496;2023-07-02T14:13:01;100867.97;;;18.26;99.69
20043;BME280;10182;52.896;6.496;2023-07-02T14:18:04;100855.41;;;18.16;98.10
20043;BME280;10182;52.896;6.496;2023-07-02T14:23:06;100859.88;;;18.62;98.32
20043;BME280;10182;52.896;6.496;2023-07-02T14:28:08;100865.88;;;18.88;71.48
20043;BME280;10182;52.896;6.496;2023-07-02T14:33:12;100864.00;;;18.55;70.27
20043;BME280;10182;52.896;6.496;2023-07-02T14:38:14;100865.34;;;18.60;80.50
20043;BME280;10182;52.896;6.496;2023-07-02T14:43:16;100876.66;;;18.41;78.22
20043;BME280;10182;52.896;6.496;2023-07-02T14:48:19;100861.31;;;19.11;78.11
20043;BME280;10182;52.896;6.496;2023-07-02T14:53:22;100859.22;;;18.47;72.97
20043;BME280;10182;52.896;6.496;2023-07-02T14:58:25;100866.41;;;18.35;93.68
20043;BME280;10182;52.896;6.496;2023-07-02T15:03:29;100873.13;;;17.94;92.50
20043;BME280;10182;52.896;6.496;2023-07-02T15:08:31;100864.63;;;18.00;95.08
20043;BME280;10182;52.896;6.496;2023-07-02T15:13:34;100866.75;;;18.19;91.56
20043;BME280;10182;52.896;6.496;2023-07-02T15:18:37;100855.25;;;18.06;94.00
20043;BME280;10182;52.896;6.496;2023-07-02T15:23:39;100865.81;;;17.96;88.81
20043;BME280;10182;52.896;6.496;2023-07-02T15:28:41;100853.34;;;17.84;84.87
20043;BME280;10182;52.896;6.496;2023-07-02T15:33:44;100837.66;;;18.49;89.07
20043;BME280;10182;52.896;6.496;2023-07-02T15:38:46;100848.03;;;18.87;77.42
20043;BME280;10182;52.896;6.496;2023-07-02T15:43:48;100845.06;;;18.45;84.30
20043;BME280;10182;52.896;6.496;2023-07-02T15:48:53;100841.19;;;18.83;78.84
20043;BME280;10182;52.896;6.496;2023-07-02T15:53:55;100847.94;;;19.00;70.59
20043;BME280;10182;52.896;6.496;2023-07-02T15:58:57;100842.66;;;18.65;75.88
20043;BME280;10182;52.896;6.496;2023-07-02T16:04:00;100859.56;;;18.20;71.96
20043;BME280;10182;52.896;6.496;2023-07-02T16:09:03;100855.78;;;18.34;82.18
20043;BME280;10182;52.896;6.496;2023-07-02T16:14:06;100860.00;;;18.60;86.68
20043;BME280;10182;52.896;6.496;2023-07-02T16:19:13;100858.50;;;18.68;93.73
20043;BME280;10182;52.896;6.496;2023-07-02T16:24:17;100857.50;;;18.35;95.81
20043;BME280;10182;52.896;6.496;2023-07-02T16:29:20;100851.28;;;18.34;97.23
20043;BME280;10182;52.896;6.496;2023-07-02T16:34:24;100857.50;;;18.23;92.78
20043;BME280;10182;52.896;6.496;2023-07-02T16:39:26;100860.91;;;18.25;99.58
20043;BME280;10182;52.896;6.496;2023-07-02T16:44:28;100866.75;;;18.19;99.01
20043;BME280;10182;52.896;6.496;2023-07-02T16:49:31;100861.00;;;18.13;98.05
20043;BME280;10182;52.896;6.496;2023-07-02T16:54:33;100848.19;;;18.16;93.23
20043;BME280;10182;52.896;6.496;2023-07-02T16:59:35;100859.00;;;18.61;88.58
20043;BME280;10182;52.896;6.496;2023-07-02T17:04:39;100852.28;;;18.56;81.92
20043;BME280;10182;52.896;6.496;2023-07-02T17:09:40;100848.44;;;18.02;91.78
20043;BME280;10182;52.896;6.496;2023-07-02T17:14:47;100850.34;;;17.75;97.89
20043;BME280;10182;52.896;6.496;2023-07-02T17:19:52;100842.69;;;18.06;100.00
20043;BME280;10182;52.896;6.496;2023-07-02T17:24:56;100833.31;;;18.12;100.00
20043;BME280;10182;52.896;6.496;2023-07-02T17:30:02;100840.03;;;18.06;100.00
20043;BME280;10182;52.896;6.496;2023-07-02T17:35:07;100830.69;;;17.88;100.00
20043;BME280;10182;52.896;6.496;2023-07-02T17:40:14;100837.97;;;17.86;100.00
20043;BME280;10182;52.896;6.496;2023-07-02T17:45:15;100824.44;;;17.76;100.00
20043;BME280;10182;52.896;6.496;2023-07-02T17:50:19;100820.13;;;17.62;100.00
20043;BME280;10182;52.896;6.496;2023-07-02T17:55:20;100816.81;;;17.58;100.00
20043;BME280;10182;52.896;6.496;2023-07-02T18:00:22;100815.72;;;17.61;100.00
20043;BME280;10182;52.896;6.496;2023-07-02T18:05:25;100814.69;;;17.51;100.00
20043;BME280;10182;52.896;6.496;2023-07-02T18:10:27;100809.06;;;17.42;100.00
20043;BME280;10182;52.896;6.496;2023-07-02T18:15:29;100807.78;;;17.48;100.00
20043;BME280;10182;52.896;6.496;2023-07-02T18:20:32;100797.06;;;17.48;100.00
20043;BME280;10182;52.896;6.496;2023-07-02T18:25:33;100794.66;;;17.56;100.00
20043;BME280;10182;52.896;6.496;2023-07-02T18:30:35;100792.81;;;17.57;100.00
20043;BME280;10182;52.896;6.496;2023-07-02T18:35:40;100794.38;;;17.48;100.00
20043;BME280;10182;52.896;6.496;2023-07-02T18:40:43;100785.97;;;17.41;100.00
20043;BME280;10182;52.896;6.496;2023-07-02T18:45:50;100784.56;;;17.36;100.00
20043;BME280;10182;52.896;6.496;2023-07-02T18:50:53;100789.06;;;17.35;100.00
20043;BME280;10182;52.896;6.496;2023-07-02T18:55:56;100781.28;;;17.32;100.00
20043;BME280;10182;52.896;6.496;2023-07-02T19:00:59;100775.66;;;17.24;100.00
20043;BME280;10182;52.896;6.496;2023-07-02T19:06:06;100765.97;;;17.10;100.00
20043;BME280;10182;52.896;6.496;2023-07-02T19:11:08;100774.31;;;17.05;100.00
20043;BME280;10182;52.896;6.496;2023-07-02T19:16:10;100766.97;;;16.96;100.00
20043;BME280;10182;52.896;6.496;2023-07-02T19:21:13;100764.44;;;16.82;100.00
20043;BME280;10182;52.896;6.496;2023-07-02T19:26:18;100774.16;;;16.83;100.00
20043;BME280;10182;52.896;6.496;2023-07-02T19:31:19;100764.84;;;16.75;100.00
20043;BME280;10182;52.896;6.496;2023-07-02T19:36:23;100759.00;;;16.70;100.00
20043;BME280;10182;52.896;6.496;2023-07-02T19:41:24;100760.28;;;16.65;100.00
20043;BME280;10182;52.896;6.496;2023-07-02T19:46:26;100761.88;;;16.67;100.00
20043;BME280;10182;52.896;6.496;2023-07-02T19:51:29;100761.75;;;16.69;100.00
20043;BME280;10182;52.896;6.496;2023-07-02T19:56:32;100771.31;;;16.60;100.00
20043;BME280;10182;52.896;6.496;2023-07-02T20:01:34;100767.16;;;16.56;100.00
20043;BME280;10182;52.896;6.496;2023-07-02T20:06:37;100765.66;;;16.52;100.00
20043;BME280;10182;52.896;6.496;2023-07-02T20:11:39;100766.63;;;16.51;100.00
20043;BME280;10182;52.896;6.496;2023-07-02T20:16:40;100765.31;;;16.56;100.00
20043;BME280;10182;52.896;6.496;2023-07-02T20:21:43;100763.22;;;16.49;100.00
20043;BME280;10182;52.896;6.496;2023-07-02T20:26:45;100763.22;;;16.49;100.00
20043;BME280;10182;52.896;6.496;2023-07-02T20:31:47;100757.09;;;16.47;100.00
20043;BME280;10182;52.896;6.496;2023-07-02T20:36:52;100756.03;;;16.49;100.00
20043;BME280;10182;52.896;6.496;2023-07-02T20:41:54;100752.53;;;16.49;100.00
20043;BME280;10182;52.896;6.496;2023-07-02T20:46:59;100759.91;;;16.45;100.00
20043;BME280;10182;52.896;6.496;2023-07-02T20:52:03;100748.66;;;16.40;100.00
20043;BME280;10182;52.896;6.496;2023-07-02T20:57:05;100750.28;;;16.42;100.00
20043;BME280;10182;52.896;6.496;2023-07-02T21:02:07;100753.06;;;16.41;100.00
20043;BME280;10182;52.896;6.496;2023-07-02T21:07:11;100753.41;;;16.36;100.00
20043;BME280;10182;52.896;6.496;2023-07-02T21:12:13;100751.03;;;16.32;100.00
20043;BME280;10182;52.896;6.496;2023-07-02T21:17:15;100750.59;;;16.25;100.00
20043;BME280;10182;52.896;6.496;2023-07-02T21:22:18;100747.19;;;16.23;100.00
20043;BME280;10182;52.896;6.496;2023-07-02T21:27:19;100747.94;;;16.25;100.00
20043;BME280;10182;52.896;6.496;2023-07-02T21:32:21;100751.91;;;16.19;100.00
20043;BME280;10182;52.896;6.496;2023-07-02T21:37:24;100737.69;;;16.19;100.00
20043;BME280;10182;52.896;6.496;2023-07-02T21:42:26;100738.34;;;16.10;100.00
20043;BME280;10182;52.896;6.496;2023-07-02T21:47:28;100739.59;;;16.17;100.00
20043;BME280;10182;52.896;6.496;2023-07-02T21:52:32;100733.63;;;16.13;100.00
20043;BME280;10182;52.896;6.496;2023-07-02T21:57:33;100728.50;;;16.10;100.00
20043;BME280;10182;52.896;6.496;2023-07-02T22:02:35;100724.13;;;16.09;100.00
20043;BME280;10182;52.896;6.496;2023-07-02T22:07:38;100723.16;;;16.10;100.00
20043;BME280;10182;52.896;6.496;2023-07-02T22:12:40;100722.63;;;16.05;100.00
20043;BME280;10182;52.896;6.496;2023-07-02T22:17:42;100717.47;;;16.02;100.00
20043;BME280;10182;52.896;6.496;2023-07-02T22:22:46;100714.94;;;16.00;100.00
20043;BME280;10182;52.896;6.496;2023-07-02T22:27:47;100712.59;;;15.96;100.00
20043;BME280;10182;52.896;6.496;2023-07-02T22:32:50;100707.25;;;15.96;100.00
20043;BME280;10182;52.896;6.496;2023-07-02T22:37:53;100701.25;;;15.92;100.00
20043;BME280;10182;52.896;6.496;2023-07-02T22:42:56;100702.44;;;15.88;100.00
20043;BME280;10182;52.896;6.496;2023-07-02T22:47:57;100697.09;;;15.88;100.00
20043;BME280;10182;52.896;6.496;2023-07-02T22:53:00;100701.03;;;15.82;100.00
20043;BME280;10182;52.896;6.496;2023-07-02T22:58:02;100698.78;;;15.76;100.00
20043;BME280;10182;52.896;6.496;2023-07-02T23:03:04;100687.56;;;15.71;100.00
20043;BME280;10182;52.896;6.496;2023-07-02T23:08:07;100685.09;;;15.68;100.00
20043;BME280;10182;52.896;6.496;2023-07-02T23:13:09;100682.63;;;15.65;100.00
20043;BME280;10182;52.896;6.496;2023-07-02T23:18:11;100683.19;;;15.57;100.00
20043;BME280;10182;52.896;6.496;2023-07-02T23:23:14;100671.09;;;15.51;100.00
20043;BME280;10182;52.896;6.496;2023-07-02T23:28:16;100665.84;;;15.50;100.00
20043;BME280;10182;52.896;6.496;2023-07-02T23:33:18;100663.09;;;15.51;100.00
20043;BME280;10182;52.896;6.496;2023-07-02T23:38:23;100658.50;;;15.53;100.00
20043;BME280;10182;52.896;6.496;2023-07-02T23:43:24;100650.81;;;15.49;100.00
20043;BME280;10182;52.896;6.496;2023-07-02T23:48:27;100650.72;;;15.50;100.00
20043;BME280;10182;52.896;6.496;2023-07-02T23:53:30;100648.22;;;15.47;100.00
20043;BME280;10182;52.896;6.496;2023-07-02T23:58:32;100640.22;;;15.47;100.00
